sensor_id;sensor_type;location;lat;lon;timestamp;P1;durP1;ratioP1;P2;durP2;ratioP2
81801;SDS011;71199;52.490;5.448;2023-07-20T00:02:13;3.80;;;2.00;;
81801;SDS011;71199;52.490;5.448;2023-07-20T00:04:39;3.60;;;1.80;;
81801;SDS011;71199;52.490;5.448;2023-07-20T00:07:04;5.43;;;2.10;;
81801;SDS011;71199;52.490;5.448;2023-07-20T00:09:30;3.35;;;2.42;;
81801;SDS011;71199;52.490;5.448;2023-07-20T00:11:55;4.10;;;2.10;;
81801;SDS011;71199;52.490;5.448;2023-07-20T00:14:21;4.50;;;2.25;;
81801;SDS011;71199;52.490;5.448;2023-07-20T00:16:47;3.75;;;1.95;;
81801;SDS011;71199;52.490;5.448;2023-07-20T00:19:17;4.43;;;2.25;;
81801;SDS011;71199;52.490;5.448;2023-07-20T00:21:42;4.40;;;1.80;;
81801;SDS011;71199;52.490;5.448;2023-07-20T00:24:07;3.73;;;2.00;;
81801;SDS011;71199;52.490;5.448;2023-07-20T00:26:33;2.78;;;1.90;;
81801;SDS011;71199;52.490;5.448;2023-07-20T00:28:58;3.15;;;2.20;;
81801;SDS011;71199;52.490;5.448;2023-07-20T00:31:24;2.72;;;1.85;;
81801;SDS011;71199;52.490;5.448;2023-07-20T00:33:49;5.03;;;1.90;;
81801;SDS011;71199;52.490;5.448;2023-07-20T00:36:15;3.55;;;1.60;;
81801;SDS011;71199;52.490;5.448;2023-07-20T00:38:40;4.45;;;1.77;;
81801;SDS011;71199;52.490;5.448;2023-07-20T00:41:07;5.30;;;1.70;;
81801;SDS011;71199;52.490;5.448;2023-07-20T00:43:32;4.40;;;2.03;;
81801;SDS011;71199;52.490;5.448;2023-07-20T00:45:57;3.57;;;1.90;;
81801;SDS011;71199;52.490;5.448;2023-07-20T00:48:23;5.15;;;1.85;;
81801;SDS011;71199;52.490;5.448;2023-07-20T00:50:48;5.03;;;1.85;;
81801;SDS011;71199;52.490;5.448;2023-07-20T00:53:15;4.68;;;2.08;;
81801;SDS011;71199;52.490;5.448;2023-07-20T00:55:40;3.63;;;1.83;;
81801;SDS011;71199;52.490;5.448;2023-07-20T00:58:06;4.13;;;2.05;;
81801;SDS011;71199;52.490;5.448;2023-07-20T01:00:32;3.88;;;2.10;;
81801;SDS011;71199;52.490;5.448;2023-07-20T01:02:57;3.63;;;1.77;;
81801;SDS011;71199;52.490;5.448;2023-07-20T01:05:24;6.45;;;2.17;;
81801;SDS011;71199;52.490;5.448;2023-07-20T01:08:00;5.10;;;2.00;;
81801;SDS011;71199;52.490;5.448;2023-07-20T01:10:39;3.85;;;2.10;;
81801;SDS011;71199;52.490;5.448;2023-07-20T01:13:09;3.00;;;2.28;;
81801;SDS011;71199;52.490;5.448;2023-07-20T01:15:35;3.38;;;2.05;;
81801;SDS011;71199;52.490;5.448;2023-07-20T01:18:00;2.67;;;1.80;;
81801;SDS011;71199;52.490;5.448;2023-07-20T01:20:26;4.43;;;1.85;;
81801;SDS011;71199;52.490;5.448;2023-07-20T01:28:34;4.88;;;2.20;;
81801;SDS011;71199;52.490;5.448;2023-07-20T01:33:41;2.80;;;1.98;;
81801;SDS011;71199;52.490;5.448;2023-07-20T01:36:07;3.75;;;2.35;;
81801;SDS011;71199;52.490;5.448;2023-07-20T01:38:35;5.40;;;2.30;;
81801;SDS011;71199;52.490;5.448;2023-07-20T01:41:01;3.20;;;2.00;;
81801;SDS011;71199;52.490;5.448;2023-07-20T01:43:27;5.32;;;1.90;;
81801;SDS011;71199;52.490;5.448;2023-07-20T01:45:53;4.77;;;1.80;;
81801;SDS011;71199;52.490;5.448;2023-07-20T01:48:18;2.50;;;1.90;;
81801;SDS011;71199;52.490;5.448;2023-07-20T01:50:44;5.05;;;1.92;;
81801;SDS011;71199;52.490;5.448;2023-07-20T01:53:09;2.97;;;2.00;;
81801;SDS011;71199;52.490;5.448;2023-07-20T01:55:34;3.50;;;1.90;;
81801;SDS011;71199;52.490;5.448;2023-07-20T01:58:00;2.47;;;1.70;;
81801;SDS011;71199;52.490;5.448;2023-07-20T02:00:26;3.40;;;1.80;;
81801;SDS011;71199;52.490;5.448;2023-07-20T02:02:52;3.47;;;2.03;;
81801;SDS011;71199;52.490;5.448;2023-07-20T02:05:17;4.70;;;2.30;;
81801;SDS011;71199;52.490;5.448;2023-07-20T02:07:43;3.23;;;2.07;;
81801;SDS011;71199;52.490;5.448;2023-07-20T02:10:08;5.70;;;1.90;;
81801;SDS011;71199;52.490;5.448;2023-07-20T02:12:34;3.33;;;2.00;;
81801;SDS011;71199;52.490;5.448;2023-07-20T02:14:59;3.63;;;2.07;;
81801;SDS011;71199;52.490;5.448;2023-07-20T02:17:25;3.97;;;1.97;;
81801;SDS011;71199;52.490;5.448;2023-07-20T02:19:51;3.30;;;2.07;;
81801;SDS011;71199;52.490;5.448;2023-07-20T02:22:17;3.67;;;2.40;;
81801;SDS011;71199;52.490;5.448;2023-07-20T02:24:43;3.15;;;1.92;;
81801;SDS011;71199;52.490;5.448;2023-07-20T02:27:08;4.07;;;3.03;;
81801;SDS011;71199;52.490;5.448;2023-07-20T02:29:34;4.07;;;2.27;;
81801;SDS011;71199;52.490;5.448;2023-07-20T02:31:59;3.80;;;2.65;;
81801;SDS011;71199;52.490;5.448;2023-07-20T02:34:24;5.83;;;2.90;;
81801;SDS011;71199;52.490;5.448;2023-07-20T02:36:50;4.50;;;2.90;;
81801;SDS011;71199;52.490;5.448;2023-07-20T02:39:15;3.88;;;2.45;;
81801;SDS011;71199;52.490;5.448;2023-07-20T02:41:40;4.13;;;2.90;;
81801;SDS011;71199;52.490;5.448;2023-07-20T02:44:06;5.28;;;3.28;;
81801;SDS011;71199;52.490;5.448;2023-07-20T02:46:32;6.28;;;3.10;;
81801;SDS011;71199;52.490;5.448;2023-07-20T02:48:57;5.18;;;3.30;;
81801;SDS011;71199;52.490;5.448;2023-07-20T02:51:23;5.90;;;3.33;;
81801;SDS011;71199;52.490;5.448;2023-07-20T02:53:48;3.70;;;2.88;;
81801;SDS011;71199;52.490;5.448;2023-07-20T02:56:13;5.77;;;3.30;;
81801;SDS011;71199;52.490;5.448;2023-07-20T02:58:41;5.95;;;3.70;;
81801;SDS011;71199;52.490;5.448;2023-07-20T03:01:10;5.50;;;3.55;;
81801;SDS011;71199;52.490;5.448;2023-07-20T03:03:37;9.25;;;3.75;;
81801;SDS011;71199;52.490;5.448;2023-07-20T03:06:06;6.15;;;3.78;;
81801;SDS011;71199;52.490;5.448;2023-07-20T03:08:34;4.82;;;3.20;;
81801;SDS011;71199;52.490;5.448;2023-07-20T03:11:00;6.00;;;3.80;;
81801;SDS011;71199;52.490;5.448;2023-07-20T03:13:26;6.50;;;3.60;;
81801;SDS011;71199;52.490;5.448;2023-07-20T03:15:52;6.30;;;3.57;;
81801;SDS011;71199;52.490;5.448;2023-07-20T03:18:17;5.93;;;3.08;;
81801;SDS011;71199;52.490;5.448;2023-07-20T03:20:43;6.72;;;3.45;;
81801;SDS011;71199;52.490;5.448;2023-07-20T03:23:08;5.38;;;3.22;;
81801;SDS011;71199;52.490;5.448;2023-07-20T03:25:34;4.53;;;3.23;;
81801;SDS011;71199;52.490;5.448;2023-07-20T03:28:02;4.85;;;3.13;;
81801;SDS011;71199;52.490;5.448;2023-07-20T03:30:27;5.50;;;3.00;;
81801;SDS011;71199;52.490;5.448;2023-07-20T03:32:53;6.20;;;3.30;;
81801;SDS011;71199;52.490;5.448;2023-07-20T03:35:18;6.37;;;3.47;;
81801;SDS011;71199;52.490;5.448;2023-07-20T03:37:43;4.20;;;3.27;;
81801;SDS011;71199;52.490;5.448;2023-07-20T03:40:10;5.10;;;3.50;;
81801;SDS011;71199;52.490;5.448;2023-07-20T03:42:35;4.75;;;3.45;;
81801;SDS011;71199;52.490;5.448;2023-07-20T03:45:01;5.80;;;3.65;;
81801;SDS011;71199;52.490;5.448;2023-07-20T03:47:27;6.13;;;3.40;;
81801;SDS011;71199;52.490;5.448;2023-07-20T03:49:53;7.53;;;3.60;;
81801;SDS011;71199;52.490;5.448;2023-07-20T03:52:18;5.93;;;3.17;;
81801;SDS011;71199;52.490;5.448;2023-07-20T03:54:44;6.00;;;2.83;;
81801;SDS011;71199;52.490;5.448;2023-07-20T03:57:09;5.28;;;3.42;;
81801;SDS011;71199;52.490;5.448;2023-07-20T03:59:36;7.23;;;3.20;;
81801;SDS011;71199;52.490;5.448;2023-07-20T04:02:03;5.50;;;3.50;;
81801;SDS011;71199;52.490;5.448;2023-07-20T04:04:30;7.15;;;3.40;;
81801;SDS011;71199;52.490;5.448;2023-07-20T04:06:56;5.30;;;3.38;;
81801;SDS011;71199;52.490;5.448;2023-07-20T04:09:21;8.60;;;3.70;;
81801;SDS011;71199;52.490;5.448;2023-07-20T04:11:47;4.50;;;3.20;;
81801;SDS011;71199;52.490;5.448;2023-07-20T04:14:12;6.50;;;3.67;;
81801;SDS011;71199;52.490;5.448;2023-07-20T04:16:37;6.50;;;3.23;;
81801;SDS011;71199;52.490;5.448;2023-07-20T04:19:03;4.63;;;3.30;;
81801;SDS011;71199;52.490;5.448;2023-07-20T04:21:28;5.88;;;3.30;;
81801;SDS011;71199;52.490;5.448;2023-07-20T04:23:53;7.07;;;3.63;;
81801;SDS011;71199;52.490;5.448;2023-07-20T04:26:19;5.43;;;3.17;;
81801;SDS011;71199;52.490;5.448;2023-07-20T04:28:44;8.10;;;2.80;;
81801;SDS011;71199;52.490;5.448;2023-07-20T04:31:10;4.20;;;2.67;;
81801;SDS011;71199;52.490;5.448;2023-07-20T04:33:37;3.90;;;2.80;;
81801;SDS011;71199;52.490;5.448;2023-07-20T04:36:02;4.32;;;2.45;;
81801;SDS011;71199;52.490;5.448;2023-07-20T04:38:28;3.50;;;2.60;;
81801;SDS011;71199;52.490;5.448;2023-07-20T04:40:53;4.93;;;2.97;;
81801;SDS011;71199;52.490;5.448;2023-07-20T04:43:19;5.93;;;2.90;;
81801;SDS011;71199;52.490;5.448;2023-07-20T04:45:44;4.63;;;2.53;;
81801;SDS011;71199;52.490;5.448;2023-07-20T04:48:10;4.95;;;2.70;;
81801;SDS011;71199;52.490;5.448;2023-07-20T04:50:37;4.43;;;2.78;;
81801;SDS011;71199;52.490;5.448;2023-07-20T04:53:03;5.63;;;2.90;;
81801;SDS011;71199;52.490;5.448;2023-07-20T04:55:28;6.72;;;2.33;;
81801;SDS011;71199;52.490;5.448;2023-07-20T04:57:54;5.60;;;2.95;;
81801;SDS011;71199;52.490;5.448;2023-07-20T05:00:19;3.90;;;2.40;;
81801;SDS011;71199;52.490;5.448;2023-07-20T05:05:13;6.47;;;3.13;;
81801;SDS011;71199;52.490;5.448;2023-07-20T05:07:39;4.47;;;2.22;;
81801;SDS011;71199;52.490;5.448;2023-07-20T05:10:05;2.97;;;1.98;;
81801;SDS011;71199;52.490;5.448;2023-07-20T05:12:31;3.22;;;2.15;;
81801;SDS011;71199;52.490;5.448;2023-07-20T05:14:56;3.37;;;2.03;;
81801;SDS011;71199;52.490;5.448;2023-07-20T05:17:22;5.53;;;2.60;;
81801;SDS011;71199;52.490;5.448;2023-07-20T05:19:47;4.35;;;2.00;;
81801;SDS011;71199;52.490;5.448;2023-07-20T05:22:16;4.33;;;2.33;;
81801;SDS011;71199;52.490;5.448;2023-07-20T05:24:42;4.50;;;2.33;;
81801;SDS011;71199;52.490;5.448;2023-07-20T05:27:08;6.60;;;2.55;;
81801;SDS011;71199;52.490;5.448;2023-07-20T05:29:33;5.05;;;2.65;;
81801;SDS011;71199;52.490;5.448;2023-07-20T05:31:58;5.20;;;2.73;;
81801;SDS011;71199;52.490;5.448;2023-07-20T05:34:24;6.70;;;2.70;;
81801;SDS011;71199;52.490;5.448;2023-07-20T05:36:49;3.63;;;2.33;;
81801;SDS011;71199;52.490;5.448;2023-07-20T05:39:16;3.90;;;2.67;;
81801;SDS011;71199;52.490;5.448;2023-07-20T05:41:42;4.53;;;2.50;;
81801;SDS011;71199;52.490;5.448;2023-07-20T05:44:07;5.30;;;2.42;;
81801;SDS011;71199;52.490;5.448;2023-07-20T05:46:32;24.80;;;13.18;;
81801;SDS011;71199;52.490;5.448;2023-07-20T05:48:58;3.83;;;2.60;;
81801;SDS011;71199;52.490;5.448;2023-07-20T05:51:23;4.40;;;2.50;;
81801;SDS011;71199;52.490;5.448;2023-07-20T05:53:48;5.23;;;2.67;;
81801;SDS011;71199;52.490;5.448;2023-07-20T05:56:14;5.83;;;2.50;;
81801;SDS011;71199;52.490;5.448;2023-07-20T05:58:39;3.07;;;2.10;;
81801;SDS011;71199;52.490;5.448;2023-07-20T06:01:04;4.13;;;2.17;;
81801;SDS011;71199;52.490;5.448;2023-07-20T06:03:33;4.15;;;2.10;;
81801;SDS011;71199;52.490;5.448;2023-07-20T06:06:02;4.80;;;1.90;;
81801;SDS011;71199;52.490;5.448;2023-07-20T06:08:29;2.50;;;1.45;;
81801;SDS011;71199;52.490;5.448;2023-07-20T06:10:55;3.47;;;1.50;;
81801;SDS011;71199;52.490;5.448;2023-07-20T06:13:20;3.00;;;1.40;;
81801;SDS011;71199;52.490;5.448;2023-07-20T06:15:46;2.17;;;1.02;;
81801;SDS011;71199;52.490;5.448;2023-07-20T06:18:12;2.47;;;1.20;;
81801;SDS011;71199;52.490;5.448;2023-07-20T06:20:38;4.65;;;2.20;;
81801;SDS011;71199;52.490;5.448;2023-07-20T06:23:03;5.18;;;1.80;;
81801;SDS011;71199;52.490;5.448;2023-07-20T06:25:29;4.97;;;1.35;;
81801;SDS011;71199;52.490;5.448;2023-07-20T06:27:55;2.50;;;1.40;;
81801;SDS011;71199;52.490;5.448;2023-07-20T06:30:21;4.63;;;1.45;;
81801;SDS011;71199;52.490;5.448;2023-07-20T06:32:46;2.50;;;1.33;;
81801;SDS011;71199;52.490;5.448;2023-07-20T06:35:12;3.92;;;1.52;;
81801;SDS011;71199;52.490;5.448;2023-07-20T06:37:37;4.60;;;1.65;;
81801;SDS011;71199;52.490;5.448;2023-07-20T06:40:03;1.77;;;0.90;;
81801;SDS011;71199;52.490;5.448;2023-07-20T06:42:29;2.50;;;1.10;;
81801;SDS011;71199;52.490;5.448;2023-07-20T06:44:55;2.78;;;1.20;;
81801;SDS011;71199;52.490;5.448;2023-07-20T06:47:21;3.85;;;1.20;;
81801;SDS011;71199;52.490;5.448;2023-07-20T06:49:47;3.28;;;1.02;;
81801;SDS011;71199;52.490;5.448;2023-07-20T06:52:12;2.00;;;1.02;;
81801;SDS011;71199;52.490;5.448;2023-07-20T06:54:38;2.85;;;1.08;;
81801;SDS011;71199;52.490;5.448;2023-07-20T06:57:04;2.00;;;1.20;;
81801;SDS011;71199;52.490;5.448;2023-07-20T06:59:30;5.18;;;1.20;;
81801;SDS011;71199;52.490;5.448;2023-07-20T07:01:55;2.30;;;1.20;;
81801;SDS011;71199;52.490;5.448;2023-07-20T07:04:21;2.40;;;1.02;;
81801;SDS011;71199;52.490;5.448;2023-07-20T07:06:46;4.18;;;0.98;;
81801;SDS011;71199;52.490;5.448;2023-07-20T07:09:12;2.57;;;1.33;;
81801;SDS011;71199;52.490;5.448;2023-07-20T07:11:37;2.13;;;1.20;;
81801;SDS011;71199;52.490;5.448;2023-07-20T07:14:03;2.22;;;1.02;;
81801;SDS011;71199;52.490;5.448;2023-07-20T07:16:28;1.90;;;1.23;;
81801;SDS011;71199;52.490;5.448;2023-07-20T07:18:53;2.67;;;1.57;;
81801;SDS011;71199;52.490;5.448;2023-07-20T07:21:19;2.08;;;1.40;;
81801;SDS011;71199;52.490;5.448;2023-07-20T07:23:45;2.70;;;1.20;;
81801;SDS011;71199;52.490;5.448;2023-07-20T07:26:10;2.78;;;1.23;;
81801;SDS011;71199;52.490;5.448;2023-07-20T07:28:36;2.42;;;1.10;;
81801;SDS011;71199;52.490;5.448;2023-07-20T07:31:05;2.92;;;1.20;;
81801;SDS011;71199;52.490;5.448;2023-07-20T07:33:33;1.80;;;0.90;;
81801;SDS011;71199;52.490;5.448;2023-07-20T07:35:59;3.67;;;1.20;;
81801;SDS011;71199;52.490;5.448;2023-07-20T07:38:25;3.10;;;1.10;;
81801;SDS011;71199;52.490;5.448;2023-07-20T07:40:50;3.20;;;1.20;;
81801;SDS011;71199;52.490;5.448;2023-07-20T07:43:15;3.45;;;1.08;;
81801;SDS011;71199;52.490;5.448;2023-07-20T07:45:41;2.30;;;1.00;;
81801;SDS011;71199;52.490;5.448;2023-07-20T07:48:06;2.03;;;1.00;;
81801;SDS011;71199;52.490;5.448;2023-07-20T07:50:32;3.90;;;1.35;;
81801;SDS011;71199;52.490;5.448;2023-07-20T07:52:58;2.40;;;1.20;;
81801;SDS011;71199;52.490;5.448;2023-07-20T07:55:24;2.97;;;1.10;;
81801;SDS011;71199;52.490;5.448;2023-07-20T07:57:53;2.05;;;1.00;;
81801;SDS011;71199;52.490;5.448;2023-07-20T08:00:18;3.23;;;1.00;;
81801;SDS011;71199;52.490;5.448;2023-07-20T08:02:47;2.60;;;1.10;;
81801;SDS011;71199;52.490;5.448;2023-07-20T08:05:15;2.00;;;1.23;;
81801;SDS011;71199;52.490;5.448;2023-07-20T08:07:41;2.17;;;1.02;;
81801;SDS011;71199;52.490;5.448;2023-07-20T08:10:07;1.80;;;0.70;;
81801;SDS011;71199;52.490;5.448;2023-07-20T08:12:33;2.83;;;1.10;;
81801;SDS011;71199;52.490;5.448;2023-07-20T08:14:58;2.10;;;0.80;;
81801;SDS011;71199;52.490;5.448;2023-07-20T08:17:24;1.92;;;0.80;;
81801;SDS011;71199;52.490;5.448;2023-07-20T08:19:49;2.55;;;1.02;;
81801;SDS011;71199;52.490;5.448;2023-07-20T08:22:15;2.58;;;0.90;;
81801;SDS011;71199;52.490;5.448;2023-07-20T08:24:40;2.60;;;1.10;;
81801;SDS011;71199;52.490;5.448;2023-07-20T08:27:07;2.35;;;1.00;;
81801;SDS011;71199;52.490;5.448;2023-07-20T08:29:33;4.28;;;1.08;;
81801;SDS011;71199;52.490;5.448;2023-07-20T08:31:59;3.88;;;0.88;;
81801;SDS011;71199;52.490;5.448;2023-07-20T08:34:24;1.83;;;0.80;;
81801;SDS011;71199;52.490;5.448;2023-07-20T08:36:50;5.17;;;1.10;;
81801;SDS011;71199;52.490;5.448;2023-07-20T08:39:15;2.10;;;1.08;;
81801;SDS011;71199;52.490;5.448;2023-07-20T08:41:42;2.37;;;0.83;;
81801;SDS011;71199;52.490;5.448;2023-07-20T08:44:08;1.80;;;0.80;;
81801;SDS011;71199;52.490;5.448;2023-07-20T08:46:35;2.30;;;0.77;;
81801;SDS011;71199;52.490;5.448;2023-07-20T08:49:03;2.25;;;1.05;;
81801;SDS011;71199;52.490;5.448;2023-07-20T08:51:30;2.53;;;1.10;;
81801;SDS011;71199;52.490;5.448;2023-07-20T08:53:55;2.45;;;1.05;;
81801;SDS011;71199;52.490;5.448;2023-07-20T08:56:21;1.90;;;0.70;;
81801;SDS011;71199;52.490;5.448;2023-07-20T08:58:49;2.67;;;1.13;;
81801;SDS011;71199;52.490;5.448;2023-07-20T09:01:17;1.88;;;1.00;;
81801;SDS011;71199;52.490;5.448;2023-07-20T09:03:44;1.70;;;0.90;;
81801;SDS011;71199;52.490;5.448;2023-07-20T09:06:10;2.17;;;0.73;;
81801;SDS011;71199;52.490;5.448;2023-07-20T09:08:39;3.97;;;0.87;;
81801;SDS011;71199;52.490;5.448;2023-07-20T09:11:06;3.30;;;1.08;;
81801;SDS011;71199;52.490;5.448;2023-07-20T09:13:32;3.20;;;0.93;;
81801;SDS011;71199;52.490;5.448;2023-07-20T09:15:58;4.07;;;1.15;;
81801;SDS011;71199;52.490;5.448;2023-07-20T09:18:24;2.63;;;1.10;;
81801;SDS011;71199;52.490;5.448;2023-07-20T09:20:51;3.75;;;1.00;;
81801;SDS011;71199;52.490;5.448;2023-07-20T09:23:16;4.47;;;0.80;;
81801;SDS011;71199;52.490;5.448;2023-07-20T09:25:42;1.85;;;0.90;;
81801;SDS011;71199;52.490;5.448;2023-07-20T09:28:07;2.38;;;0.93;;
81801;SDS011;71199;52.490;5.448;2023-07-20T09:30:32;2.83;;;0.90;;
81801;SDS011;71199;52.490;5.448;2023-07-20T09:32:58;3.75;;;1.20;;
81801;SDS011;71199;52.490;5.448;2023-07-20T09:35:24;3.25;;;1.00;;
81801;SDS011;71199;52.490;5.448;2023-07-20T09:37:55;1.63;;;0.63;;
81801;SDS011;71199;52.490;5.448;2023-07-20T09:40:24;3.65;;;1.05;;
81801;SDS011;71199;52.490;5.448;2023-07-20T09:42:51;2.25;;;0.75;;
81801;SDS011;71199;52.490;5.448;2023-07-20T09:45:27;3.55;;;0.90;;
81801;SDS011;71199;52.490;5.448;2023-07-20T09:47:59;2.95;;;1.00;;
81801;SDS011;71199;52.490;5.448;2023-07-20T09:50:28;2.00;;;1.02;;
81801;SDS011;71199;52.490;5.448;2023-07-20T09:52:53;1.90;;;1.00;;
81801;SDS011;71199;52.490;5.448;2023-07-20T09:55:19;2.42;;;1.13;;
81801;SDS011;71199;52.490;5.448;2023-07-20T09:57:46;1.90;;;0.98;;
81801;SDS011;71199;52.490;5.448;2023-07-20T10:00:12;2.00;;;1.25;;
81801;SDS011;71199;52.490;5.448;2023-07-20T10:02:43;3.40;;;1.00;;
81801;SDS011;71199;52.490;5.448;2023-07-20T10:05:10;4.18;;;1.20;;
81801;SDS011;71199;52.490;5.448;2023-07-20T10:07:40;2.25;;;1.20;;
81801;SDS011;71199;52.490;5.448;2023-07-20T10:10:12;3.42;;;1.20;;
81801;SDS011;71199;52.490;5.448;2023-07-20T10:12:45;3.65;;;1.20;;
81801;SDS011;71199;52.490;5.448;2023-07-20T10:18:17;3.25;;;1.23;;
81801;SDS011;71199;52.490;5.448;2023-07-20T10:20:51;2.30;;;1.23;;
81801;SDS011;71199;52.490;5.448;2023-07-20T10:23:19;2.92;;;1.08;;
81801;SDS011;71199;52.490;5.448;2023-07-20T10:25:44;1.85;;;0.90;;
81801;SDS011;71199;52.490;5.448;2023-07-20T10:28:11;2.05;;;1.10;;
81801;SDS011;71199;52.490;5.448;2023-07-20T10:30:38;2.47;;;1.75;;
81801;SDS011;71199;52.490;5.448;2023-07-20T10:33:04;2.33;;;1.20;;
81801;SDS011;71199;52.490;5.448;2023-07-20T10:35:31;2.00;;;1.00;;
81801;SDS011;71199;52.490;5.448;2023-07-20T10:38:15;1.90;;;1.05;;
81801;SDS011;71199;52.490;5.448;2023-07-20T10:40:40;2.73;;;1.20;;
81801;SDS011;71199;52.490;5.448;2023-07-20T10:43:06;3.97;;;1.20;;
81801;SDS011;71199;52.490;5.448;2023-07-20T10:45:36;3.55;;;1.20;;
81801;SDS011;71199;52.490;5.448;2023-07-20T10:48:06;2.72;;;1.30;;
81801;SDS011;71199;52.490;5.448;2023-07-20T10:50:40;2.10;;;1.20;;
81801;SDS011;71199;52.490;5.448;2023-07-20T10:55:38;3.83;;;1.70;;
81801;SDS011;71199;52.490;5.448;2023-07-20T10:58:08;2.95;;;1.13;;
81801;SDS011;71199;52.490;5.448;2023-07-20T11:00:35;3.97;;;1.92;;
81801;SDS011;71199;52.490;5.448;2023-07-20T11:03:01;3.63;;;1.10;;
81801;SDS011;71199;52.490;5.448;2023-07-20T11:05:34;1.95;;;1.08;;
81801;SDS011;71199;52.490;5.448;2023-07-20T11:08:04;2.15;;;0.80;;
81801;SDS011;71199;52.490;5.448;2023-07-20T11:10:34;3.08;;;1.20;;
81801;SDS011;71199;52.490;5.448;2023-07-20T11:13:18;2.00;;;1.10;;
81801;SDS011;71199;52.490;5.448;2023-07-20T11:18:25;3.13;;;1.20;;
81801;SDS011;71199;52.490;5.448;2023-07-20T11:20:51;2.40;;;1.20;;
81801;SDS011;71199;52.490;5.448;2023-07-20T11:23:17;2.05;;;1.13;;
81801;SDS011;71199;52.490;5.448;2023-07-20T11:25:45;2.33;;;1.30;;
81801;SDS011;71199;52.490;5.448;2023-07-20T11:28:11;2.03;;;1.00;;
81801;SDS011;71199;52.490;5.448;2023-07-20T11:30:37;2.42;;;1.10;;
81801;SDS011;71199;52.490;5.448;2023-07-20T11:33:03;3.17;;;1.15;;
81801;SDS011;71199;52.490;5.448;2023-07-20T11:35:29;2.63;;;0.95;;
81801;SDS011;71199;52.490;5.448;2023-07-20T11:37:55;2.78;;;1.30;;
81801;SDS011;71199;52.490;5.448;2023-07-20T11:40:21;2.58;;;1.27;;
81801;SDS011;71199;52.490;5.448;2023-07-20T11:42:47;3.13;;;1.30;;
81801;SDS011;71199;52.490;5.448;2023-07-20T11:45:15;4.22;;;1.40;;
81801;SDS011;71199;52.490;5.448;2023-07-20T11:47:44;2.63;;;1.13;;
81801;SDS011;71199;52.490;5.448;2023-07-20T11:50:09;2.28;;;1.45;;
81801;SDS011;71199;52.490;5.448;2023-07-20T11:52:36;4.88;;;1.70;;
81801;SDS011;71199;52.490;5.448;2023-07-20T11:55:02;2.28;;;1.30;;
81801;SDS011;71199;52.490;5.448;2023-07-20T11:57:28;2.95;;;1.52;;
81801;SDS011;71199;52.490;5.448;2023-07-20T12:02:22;2.42;;;1.80;;
81801;SDS011;71199;52.490;5.448;2023-07-20T12:04:50;1.80;;;1.20;;
81801;SDS011;71199;52.490;5.448;2023-07-20T12:07:18;2.65;;;1.42;;
81801;SDS011;71199;52.490;5.448;2023-07-20T12:12:10;3.53;;;1.48;;
81801;SDS011;71199;52.490;5.448;2023-07-20T12:14:37;3.58;;;1.63;;
81801;SDS011;71199;52.490;5.448;2023-07-20T12:17:02;3.55;;;1.50;;
81801;SDS011;71199;52.490;5.448;2023-07-20T12:19:28;3.75;;;1.40;;
81801;SDS011;71199;52.490;5.448;2023-07-20T12:21:56;4.82;;;1.20;;
81801;SDS011;71199;52.490;5.448;2023-07-20T12:24:24;4.30;;;1.38;;
81801;SDS011;71199;52.490;5.448;2023-07-20T12:26:55;2.45;;;1.25;;
81801;SDS011;71199;52.490;5.448;2023-07-20T12:29:22;2.55;;;1.60;;
81801;SDS011;71199;52.490;5.448;2023-07-20T12:31:47;2.58;;;1.52;;
81801;SDS011;71199;52.490;5.448;2023-07-20T12:34:13;2.15;;;1.10;;
81801;SDS011;71199;52.490;5.448;2023-07-20T12:36:38;5.07;;;1.33;;
81801;SDS011;71199;52.490;5.448;2023-07-20T12:39:04;4.90;;;1.60;;
81801;SDS011;71199;52.490;5.448;2023-07-20T12:41:30;3.15;;;1.33;;
81801;SDS011;71199;52.490;5.448;2023-07-20T12:43:55;3.13;;;1.35;;
81801;SDS011;71199;52.490;5.448;2023-07-20T12:46:22;3.70;;;1.85;;
81801;SDS011;71199;52.490;5.448;2023-07-20T12:48:49;2.80;;;1.50;;
81801;SDS011;71199;52.490;5.448;2023-07-20T12:51:14;5.10;;;2.13;;
81801;SDS011;71199;52.490;5.448;2023-07-20T12:53:40;4.93;;;3.00;;
81801;SDS011;71199;52.490;5.448;2023-07-20T12:56:05;5.32;;;2.75;;
81801;SDS011;71199;52.490;5.448;2023-07-20T12:58:31;4.00;;;1.50;;
81801;SDS011;71199;52.490;5.448;2023-07-20T13:00:57;3.70;;;1.52;;
81801;SDS011;71199;52.490;5.448;2023-07-20T13:03:22;3.05;;;1.40;;
81801;SDS011;71199;52.490;5.448;2023-07-20T13:05:47;2.95;;;1.42;;
81801;SDS011;71199;52.490;5.448;2023-07-20T13:08:13;2.75;;;1.58;;
81801;SDS011;71199;52.490;5.448;2023-07-20T13:10:40;2.50;;;1.42;;
81801;SDS011;71199;52.490;5.448;2023-07-20T13:13:06;2.15;;;1.40;;
81801;SDS011;71199;52.490;5.448;2023-07-20T13:15:32;2.88;;;1.50;;
81801;SDS011;71199;52.490;5.448;2023-07-20T13:18:05;2.80;;;1.45;;
81801;SDS011;71199;52.490;5.448;2023-07-20T13:20:31;3.05;;;1.40;;
81801;SDS011;71199;52.490;5.448;2023-07-20T13:22:56;2.42;;;1.45;;
81801;SDS011;71199;52.490;5.448;2023-07-20T13:25:21;2.30;;;1.30;;
81801;SDS011;71199;52.490;5.448;2023-07-20T13:27:47;1.98;;;1.30;;
81801;SDS011;71199;52.490;5.448;2023-07-20T13:30:12;2.70;;;1.70;;
81801;SDS011;71199;52.490;5.448;2023-07-20T13:32:41;2.75;;;1.40;;
81801;SDS011;71199;52.490;5.448;2023-07-20T13:35:11;3.63;;;1.98;;
81801;SDS011;71199;52.490;5.448;2023-07-20T13:37:37;4.53;;;2.38;;
81801;SDS011;71199;52.490;5.448;2023-07-20T13:40:03;3.25;;;1.95;;
81801;SDS011;71199;52.490;5.448;2023-07-20T13:42:30;4.18;;;1.70;;
81801;SDS011;71199;52.490;5.448;2023-07-20T13:44:55;3.83;;;1.40;;
81801;SDS011;71199;52.490;5.448;2023-07-20T13:47:21;2.25;;;1.40;;
81801;SDS011;71199;52.490;5.448;2023-07-20T13:49:46;3.03;;;1.60;;
81801;SDS011;71199;52.490;5.448;2023-07-20T13:52:12;4.57;;;1.60;;
81801;SDS011;71199;52.490;5.448;2023-07-20T13:54:37;3.40;;;1.67;;
81801;SDS011;71199;52.490;5.448;2023-07-20T13:57:03;2.95;;;1.40;;
81801;SDS011;71199;52.490;5.448;2023-07-20T13:59:28;2.47;;;1.40;;
81801;SDS011;71199;52.490;5.448;2023-07-20T14:01:54;3.13;;;1.40;;
81801;SDS011;71199;52.490;5.448;2023-07-20T14:04:19;4.00;;;1.80;;
81801;SDS011;71199;52.490;5.448;2023-07-20T14:06:45;4.17;;;1.57;;
81801;SDS011;71199;52.490;5.448;2023-07-20T14:09:10;2.63;;;1.20;;
81801;SDS011;71199;52.490;5.448;2023-07-20T14:11:35;2.07;;;1.10;;
81801;SDS011;71199;52.490;5.448;2023-07-20T14:14:01;5.75;;;3.25;;
81801;SDS011;71199;52.490;5.448;2023-07-20T14:16:26;3.92;;;2.30;;
81801;SDS011;71199;52.490;5.448;2023-07-20T14:18:52;3.35;;;1.95;;
81801;SDS011;71199;52.490;5.448;2023-07-20T14:21:18;4.07;;;1.50;;
81801;SDS011;71199;52.490;5.448;2023-07-20T14:23:45;2.88;;;1.60;;
81801;SDS011;71199;52.490;5.448;2023-07-20T14:26:11;3.42;;;1.40;;
81801;SDS011;71199;52.490;5.448;2023-07-20T14:28:37;3.30;;;1.48;;
81801;SDS011;71199;52.490;5.448;2023-07-20T14:31:03;2.30;;;1.40;;
81801;SDS011;71199;52.490;5.448;2023-07-20T14:33:28;2.65;;;1.52;;
81801;SDS011;71199;52.490;5.448;2023-07-20T14:35:53;3.57;;;1.60;;
81801;SDS011;71199;52.490;5.448;2023-07-20T14:38:19;2.20;;;1.30;;
81801;SDS011;71199;52.490;5.448;2023-07-20T14:40:44;4.70;;;1.57;;
81801;SDS011;71199;52.490;5.448;2023-07-20T14:43:10;3.42;;;1.50;;
81801;SDS011;71199;52.490;5.448;2023-07-20T14:45:36;3.83;;;1.50;;
81801;SDS011;71199;52.490;5.448;2023-07-20T14:48:05;2.47;;;1.20;;
81801;SDS011;71199;52.490;5.448;2023-07-20T14:50:30;3.55;;;1.80;;
81801;SDS011;71199;52.490;5.448;2023-07-20T14:52:56;4.33;;;2.17;;
81801;SDS011;71199;52.490;5.448;2023-07-20T14:55:21;5.95;;;3.35;;
81801;SDS011;71199;52.490;5.448;2023-07-20T14:57:47;6.38;;;2.17;;
81801;SDS011;71199;52.490;5.448;2023-07-20T15:00:13;3.08;;;1.58;;
81801;SDS011;71199;52.490;5.448;2023-07-20T15:02:39;3.45;;;1.77;;
81801;SDS011;71199;52.490;5.448;2023-07-20T15:05:06;2.97;;;1.70;;
81801;SDS011;71199;52.490;5.448;2023-07-20T15:07:32;3.40;;;1.75;;